Ulety, Russia
Current Conditions -  °F | °C
As of 3:00 AM on Saturday 25 Oct 2014 (Local Time) from UIAA Reporting Station
Scattered Clouds Scattered Clouds  
Wind Chill: 24°   Ceiling: Unl
Heat Index: 30°   Visibility: 6mi
Dew Point: 25°   Wind: 7mph
Humidity: 80%   Direction: 220°SW
Pressure: 29.68"   Gusts: NA
Location:  51.37°N, 112.48°E
Report Text: UIAA 241800Z 22003MPS 9999 SCT050 M01/M04 Q1005 NOSIG RMKQFE696 29CLRD70
Loading
Personal Weather Stations






























Interactive Weather Map
Tropical Storm Tracking
New forecast layout! Learn more

10-Day Weather Forecast

Advertisements
Track Severe Weather on mobile